SCC: Daytona Test practice three times

Pos Num Class ClsP Team Time Gap To 1st Speed --- --- ----- ---- ------------------------------ ---------- ------- ------- ------- 1. 5 GS 1 Blackforest Motorsports 2:01.681 ...

Pos Num Class ClsP Team                                 Time     Gap  To 1st   Speed
--- --- ----- ---- ------------------------------ ---------- ------- ------- -------
 1.   5 GS    1    Blackforest Motorsports          2:01.681                 105.325
 2.  55 GS**  2    Hyper Sport                      2:02.365   0.684   0.684 104.736
 3.  59 GS    3    Rehagen Racing                   2:03.086   0.721   1.405 104.122
 4. 154 GS    4    Jim Click Racing                 2:03.126   0.040   1.445 104.088
 5.   9 GS    5    Spirit of Daytona Racing         2:03.248   0.122   1.567 103.985
 6.  54 GS    6    Hyper Sport                      2:03.283   0.035   1.602 103.956
 7.  26 GS    7    Fiorano/C-MAX Racing             2:03.764   0.481   2.083 103.552
 8.   4 GS    8    Blackforest Motorsports          2:04.344   0.580   2.663 103.069
 9.  25 GS    9    Fiorano/C-MAX Racing             2:04.845   0.501   3.164 102.655
10.   6 GS    10   Blackforest Motorsports          2:05.193   0.348   3.512 102.370
11.  83 GS    11   BGB Motorsports                  2:05.247   0.054   3.566 102.326
12.  09 GS    12   Automatic Racing                 2:05.321   0.074   3.640 102.265
13.  72 GS    13   BGB Motorsports                  2:05.550   0.229   3.869 102.079
14.   3 GS    14   Blackforest Motorsports          2:05.679   0.129   3.998 101.974
15.  79 GS    15   Kinetic Motorsports              2:05.735   0.056   4.054 101.929
16.  99 GS    16   Automatic Racing                 2:05.743   0.008   4.062 101.922
17.  28 GS    17   Fall-Line Motorsports            2:05.845   0.102   4.164 101.840
18.  07 GS    18   Cardiosport Racing               2:05.969   0.124   4.288 101.739
19.  60 GS    19   Horsepower Ranch                 2:06.039   0.070   4.358 101.683
20.  87 GS    20   LNS Motorsport                   2:06.065   0.026   4.384 101.662
21.  88 GS    21   LNS Motorsport                   2:06.156   0.091   4.475 101.589
22.  80 GS    22   Kinetic Motorsports              2:06.376   0.220   4.695 101.412
23.  46 GS    23   Fall-Line Motorsports            2:06.475   0.099   4.794 101.332
24.  90 GS    24   Automatic Racing                 2:06.775   0.300   5.094 101.092
25.  61 GS    25   Horsepower Ranch                 2:06.833   0.058   5.152 101.046
26.  52 GS    26   Rehagen Racing                   2:07.263   0.430   5.582 100.705
27.  71 GS    27   Synergy Racing                   2:07.653   0.390   5.972 100.397
28.  91 GS    28   Automatic Racing                 2:07.801   0.148   6.120 100.281
29.  44 GS    29   ASC Motorsports                  2:07.820   0.019   6.139 100.266
30.  17 GS    30   Team Centurion                   2:07.825   0.005   6.144 100.262
31.  89 GS    31   LNS Motorsport                   2:08.768   0.943   7.087  99.528
32.  10 GS    32   Spirit of Daytona Racing         2:09.247   0.479   7.566  99.159
33.  18 GS    33   Race Prep Motorsports            2:09.924   0.677   8.243  98.642
34.  74 ST    1    Kensai Racing                    2:12.011   2.087  10.330  97.083
35.  75 ST    2    Kensai Racing                    2:12.012   0.001  10.331  97.082
36.  76 ST    3    Kensai Racing                    2:12.511   0.499  10.830  96.716
37.  43 GS    34   ASC Motorsports                  2:12.597   0.086  10.916  96.654
38.  50 GS    35   Eastern Competition Promotorsp   2:13.406   0.809  11.725  96.068
39. 126 ST    4    Fountain Motorsports             2:13.562   0.156  11.881  95.955
40. 125 ST    5    Fountain Motorsports             2:13.755   0.193  12.074  95.817
41.  62 ST    6    Roar Racing                      2:13.788   0.033  12.107  95.793
42.  24 ST    7    V-Pack Motorsport                2:13.894   0.106  12.213  95.718
43.  31 ST    8    i-MOTO Racing                    2:14.032   0.138  12.351  95.619
44. 121 ST    9    GT Racing                        2:15.617   1.585  13.936  94.501
45.  63 ST    10   Roar Racing                      2:16.109   0.492  14.428  94.160
46. 151 ST    11   Competition Marketing Motorspo   2:16.819   0.710  15.138  93.671
47. 131 ST    12   GT Racing                        2:16.871   0.052  15.190  93.636
48.  11 GS    36   Southwest Racers Group           2:17.772   0.901  16.091  93.023
49.  02 ST    13   Blackforest Motorsports          2:17.841   0.069  16.160  92.977
50.  32 ST    14   i-MOTO Racing                    2:17.905   0.064  16.224  92.934
51.  34 ST    15   Whatever Racing                  2:17.962   0.057  16.281  92.895
52.  48 ST    16   Team Cobalt California           2:18.011   0.049  16.330  92.862
53. 118 ST    17   Rotary Power Motorsports         2:19.560   1.549  17.879  91.831
54.  98 ST    18   Team Cobalt California           2:20.300   0.740  18.619  91.347
55.  12 ST    19   Southwest Racers Group           2:21.112   0.812  19.431  90.821
56.  56 ST    20   BSI Racing                       2:21.997   0.885  20.316  90.255
57.  58 ST    21   BSI Racing                       2:25.010   3.013  23.329  88.380
58.  40 GS    37   TRG                              5:24.128 2:59.11 3:22.44  39.540
59.  86 ST    22   Classic BMW - Plano               No Time
60.  41 GS    38   TRG                               No Time
61.   2 GS    39   Blackforest Motorsports           No Time
62.  38 GS    40   BGB Motorsports                   No Time
63.  39 GS    41   TRG                               No Time
64.  42 GS    42   TRG                               No Time
65.  78 GS    43   Kinetic Motorsports               No Time
66.  14 ST    23   MY Motorsports                    No Time
67.  23 ST    24   MY Motorsports                    No Time
68.  85 ST    25   Classic BMW - Plano               No Time
69. 138 ST    26   GS Motorsport                     No Time

** Car 55 times disallowed

Be part of something big

Write a comment
Show comments
About this article
Series Grand-Am
Drivers Jim Click
Teams Kinetic Motorsports , Rehagen Racing , Automatic Racing , Fall-Line Motorsports